sensor_id;sensor_type;location;lat;lon;timestamp;P1;durP1;ratioP1;P2;durP2;ratioP2
57461;SDS011;43308;47.306;8.608;2024-01-15T00:02:06;9.15;;;5.43;;
57461;SDS011;43308;47.306;8.608;2024-01-15T00:04:38;9.02;;;5.22;;
57461;SDS011;43308;47.306;8.608;2024-01-15T00:07:08;6.55;;;4.10;;
57461;SDS011;43308;47.306;8.608;2024-01-15T00:09:34;7.45;;;4.47;;
57461;SDS011;43308;47.306;8.608;2024-01-15T00:12:00;7.25;;;4.25;;
57461;SDS011;43308;47.306;8.608;2024-01-15T00:14:27;6.07;;;4.88;;
57461;SDS011;43308;47.306;8.608;2024-01-15T00:16:53;6.28;;;4.20;;
57461;SDS011;43308;47.306;8.608;2024-01-15T00:19:23;6.18;;;4.28;;
57461;SDS011;43308;47.306;8.608;2024-01-15T00:21:49;5.50;;;3.53;;
57461;SDS011;43308;47.306;8.608;2024-01-15T00:24:16;7.32;;;3.70;;
57461;SDS011;43308;47.306;8.608;2024-01-15T00:26:42;5.32;;;3.75;;
57461;SDS011;43308;47.306;8.608;2024-01-15T00:29:08;5.82;;;3.88;;
57461;SDS011;43308;47.306;8.608;2024-01-15T00:31:35;5.97;;;3.45;;
57461;SDS011;43308;47.306;8.608;2024-01-15T00:34:01;4.55;;;3.15;;
57461;SDS011;43308;47.306;8.608;2024-01-15T00:36:27;5.25;;;3.38;;
57461;SDS011;43308;47.306;8.608;2024-01-15T00:38:54;3.53;;;2.85;;
57461;SDS011;43308;47.306;8.608;2024-01-15T00:41:20;4.00;;;2.90;;
57461;SDS011;43308;47.306;8.608;2024-01-15T00:43:46;4.50;;;3.00;;
57461;SDS011;43308;47.306;8.608;2024-01-15T00:46:14;3.70;;;2.80;;
57461;SDS011;43308;47.306;8.608;2024-01-15T00:48:41;3.05;;;2.70;;
57461;SDS011;43308;47.306;8.608;2024-01-15T00:51:07;3.58;;;2.50;;
57461;SDS011;43308;47.306;8.608;2024-01-15T00:53:33;3.92;;;2.53;;
57461;SDS011;43308;47.306;8.608;2024-01-15T00:55:59;3.25;;;1.95;;
57461;SDS011;43308;47.306;8.608;2024-01-15T00:58:25;4.50;;;2.28;;
57461;SDS011;43308;47.306;8.608;2024-01-15T01:00:52;4.05;;;2.50;;
57461;SDS011;43308;47.306;8.608;2024-01-15T01:03:18;3.05;;;2.13;;
57461;SDS011;43308;47.306;8.608;2024-01-15T01:05:44;2.72;;;1.95;;
57461;SDS011;43308;47.306;8.608;2024-01-15T01:08:12;3.70;;;2.38;;
57461;SDS011;43308;47.306;8.608;2024-01-15T01:10:37;3.58;;;2.40;;
57461;SDS011;43308;47.306;8.608;2024-01-15T01:13:04;3.83;;;2.53;;
57461;SDS011;43308;47.306;8.608;2024-01-15T01:15:30;4.65;;;2.38;;
57461;SDS011;43308;47.306;8.608;2024-01-15T01:17:55;4.18;;;2.65;;
57461;SDS011;43308;47.306;8.608;2024-01-15T01:20:21;4.30;;;2.50;;
57461;SDS011;43308;47.306;8.608;2024-01-15T01:22:47;6.70;;;2.63;;
57461;SDS011;43308;47.306;8.608;2024-01-15T01:25:13;5.18;;;2.17;;
57461;SDS011;43308;47.306;8.608;2024-01-15T01:27:40;2.67;;;2.22;;
57461;SDS011;43308;47.306;8.608;2024-01-15T01:30:06;3.05;;;1.88;;
57461;SDS011;43308;47.306;8.608;2024-01-15T01:32:32;3.63;;;2.20;;
57461;SDS011;43308;47.306;8.608;2024-01-15T01:34:58;4.93;;;2.45;;
57461;SDS011;43308;47.306;8.608;2024-01-15T01:37:24;2.92;;;2.35;;
57461;SDS011;43308;47.306;8.608;2024-01-15T01:39:50;6.72;;;2.33;;
57461;SDS011;43308;47.306;8.608;2024-01-15T01:42:16;4.30;;;2.13;;
57461;SDS011;43308;47.306;8.608;2024-01-15T01:44:42;5.45;;;2.92;;
57461;SDS011;43308;47.306;8.608;2024-01-15T01:47:08;5.93;;;3.20;;
57461;SDS011;43308;47.306;8.608;2024-01-15T01:49:34;5.60;;;3.83;;
57461;SDS011;43308;47.306;8.608;2024-01-15T01:52:04;10.75;;;5.90;;
57461;SDS011;43308;47.306;8.608;2024-01-15T01:54:35;10.48;;;6.03;;
57461;SDS011;43308;47.306;8.608;2024-01-15T01:57:01;10.45;;;5.22;;
57461;SDS011;43308;47.306;8.608;2024-01-15T01:59:29;12.32;;;7.22;;
57461;SDS011;43308;47.306;8.608;2024-01-15T02:01:56;17.30;;;8.95;;
57461;SDS011;43308;47.306;8.608;2024-01-15T02:04:24;14.05;;;8.90;;
57461;SDS011;43308;47.306;8.608;2024-01-15T02:06:50;15.18;;;8.93;;
57461;SDS011;43308;47.306;8.608;2024-01-15T02:09:20;16.48;;;9.48;;
57461;SDS011;43308;47.306;8.608;2024-01-15T02:11:46;18.25;;;10.00;;
57461;SDS011;43308;47.306;8.608;2024-01-15T02:14:13;17.95;;;11.30;;
57461;SDS011;43308;47.306;8.608;2024-01-15T02:16:39;21.13;;;12.02;;
57461;SDS011;43308;47.306;8.608;2024-01-15T02:19:05;23.45;;;12.20;;
57461;SDS011;43308;47.306;8.608;2024-01-15T02:21:31;23.48;;;13.93;;
57461;SDS011;43308;47.306;8.608;2024-01-15T02:23:58;23.50;;;13.82;;
57461;SDS011;43308;47.306;8.608;2024-01-15T02:26:24;23.10;;;14.23;;
57461;SDS011;43308;47.306;8.608;2024-01-15T02:28:50;30.60;;;14.80;;
57461;SDS011;43308;47.306;8.608;2024-01-15T02:31:16;24.58;;;15.18;;
57461;SDS011;43308;47.306;8.608;2024-01-15T02:33:42;24.13;;;14.05;;
57461;SDS011;43308;47.306;8.608;2024-01-15T02:36:09;26.15;;;14.95;;
57461;SDS011;43308;47.306;8.608;2024-01-15T02:38:35;26.27;;;15.15;;
57461;SDS011;43308;47.306;8.608;2024-01-15T02:41:00;27.23;;;14.27;;
57461;SDS011;43308;47.306;8.608;2024-01-15T02:43:26;27.10;;;14.63;;
57461;SDS011;43308;47.306;8.608;2024-01-15T02:45:52;27.38;;;13.90;;
57461;SDS011;43308;47.306;8.608;2024-01-15T02:48:17;31.45;;;15.18;;
57461;SDS011;43308;47.306;8.608;2024-01-15T02:50:43;34.75;;;16.63;;
57461;SDS011;43308;47.306;8.608;2024-01-15T02:53:09;27.88;;;15.65;;
57461;SDS011;43308;47.306;8.608;2024-01-15T02:55:35;29.23;;;15.63;;
57461;SDS011;43308;47.306;8.608;2024-01-15T02:58:00;35.00;;;17.55;;
57461;SDS011;43308;47.306;8.608;2024-01-15T03:00:26;37.35;;;20.25;;
57461;SDS011;43308;47.306;8.608;2024-01-15T03:02:52;36.83;;;17.30;;
57461;SDS011;43308;47.306;8.608;2024-01-15T03:05:17;35.55;;;18.35;;
57461;SDS011;43308;47.306;8.608;2024-01-15T03:07:45;40.45;;;18.65;;
57461;SDS011;43308;47.306;8.608;2024-01-15T03:10:11;37.88;;;18.83;;
57461;SDS011;43308;47.306;8.608;2024-01-15T03:12:37;36.65;;;17.48;;
57461;SDS011;43308;47.306;8.608;2024-01-15T03:15:02;39.08;;;18.60;;
57461;SDS011;43308;47.306;8.608;2024-01-15T03:17:29;36.47;;;17.95;;
57461;SDS011;43308;47.306;8.608;2024-01-15T03:19:54;40.63;;;19.15;;
57461;SDS011;43308;47.306;8.608;2024-01-15T03:22:20;44.33;;;19.88;;
57461;SDS011;43308;47.306;8.608;2024-01-15T03:24:46;40.10;;;19.65;;
57461;SDS011;43308;47.306;8.608;2024-01-15T03:27:11;39.88;;;18.77;;
57461;SDS011;43308;47.306;8.608;2024-01-15T03:29:37;39.42;;;19.55;;
57461;SDS011;43308;47.306;8.608;2024-01-15T03:32:03;43.55;;;18.83;;
57461;SDS011;43308;47.306;8.608;2024-01-15T03:34:29;35.08;;;17.65;;
57461;SDS011;43308;47.306;8.608;2024-01-15T03:36:54;37.33;;;18.65;;
57461;SDS011;43308;47.306;8.608;2024-01-15T03:39:20;39.33;;;19.60;;
57461;SDS011;43308;47.306;8.608;2024-01-15T03:41:46;40.22;;;18.38;;
57461;SDS011;43308;47.306;8.608;2024-01-15T03:44:12;38.10;;;17.75;;
57461;SDS011;43308;47.306;8.608;2024-01-15T03:46:37;33.47;;;16.92;;
57461;SDS011;43308;47.306;8.608;2024-01-15T03:49:03;30.77;;;17.55;;
57461;SDS011;43308;47.306;8.608;2024-01-15T03:51:29;33.80;;;17.88;;
57461;SDS011;43308;47.306;8.608;2024-01-15T03:53:54;32.65;;;16.63;;
57461;SDS011;43308;47.306;8.608;2024-01-15T03:56:20;34.13;;;16.98;;
57461;SDS011;43308;47.306;8.608;2024-01-15T03:58:46;31.77;;;16.40;;
57461;SDS011;43308;47.306;8.608;2024-01-15T04:01:12;31.77;;;16.05;;
57461;SDS011;43308;47.306;8.608;2024-01-15T04:03:37;33.05;;;14.68;;
57461;SDS011;43308;47.306;8.608;2024-01-15T04:06:03;30.00;;;15.63;;
57461;SDS011;43308;47.306;8.608;2024-01-15T04:08:30;26.17;;;15.00;;
57461;SDS011;43308;47.306;8.608;2024-01-15T04:10:55;34.33;;;15.95;;
57461;SDS011;43308;47.306;8.608;2024-01-15T04:13:21;33.33;;;15.60;;
57461;SDS011;43308;47.306;8.608;2024-01-15T04:15:48;27.75;;;14.20;;
57461;SDS011;43308;47.306;8.608;2024-01-15T04:18:15;30.35;;;14.43;;
57461;SDS011;43308;47.306;8.608;2024-01-15T04:20:41;31.13;;;15.63;;
57461;SDS011;43308;47.306;8.608;2024-01-15T04:23:07;31.25;;;15.15;;
57461;SDS011;43308;47.306;8.608;2024-01-15T04:25:32;29.13;;;14.75;;
57461;SDS011;43308;47.306;8.608;2024-01-15T04:27:58;27.00;;;14.90;;
57461;SDS011;43308;47.306;8.608;2024-01-15T04:30:24;29.23;;;14.05;;
57461;SDS011;43308;47.306;8.608;2024-01-15T04:32:50;29.63;;;15.07;;
57461;SDS011;43308;47.306;8.608;2024-01-15T04:35:15;28.58;;;14.43;;
57461;SDS011;43308;47.306;8.608;2024-01-15T04:37:41;34.10;;;15.70;;
57461;SDS011;43308;47.306;8.608;2024-01-15T04:40:07;25.70;;;13.13;;
57461;SDS011;43308;47.306;8.608;2024-01-15T04:42:33;26.90;;;13.30;;
57461;SDS011;43308;47.306;8.608;2024-01-15T04:44:59;24.17;;;12.27;;
57461;SDS011;43308;47.306;8.608;2024-01-15T04:47:25;26.10;;;13.15;;
57461;SDS011;43308;47.306;8.608;2024-01-15T04:49:51;24.05;;;11.85;;
57461;SDS011;43308;47.306;8.608;2024-01-15T04:52:16;23.60;;;12.55;;
57461;SDS011;43308;47.306;8.608;2024-01-15T04:54:42;28.17;;;13.55;;
57461;SDS011;43308;47.306;8.608;2024-01-15T04:57:08;22.77;;;11.50;;
57461;SDS011;43308;47.306;8.608;2024-01-15T04:59:34;21.80;;;12.18;;
57461;SDS011;43308;47.306;8.608;2024-01-15T05:02:00;25.55;;;12.00;;
57461;SDS011;43308;47.306;8.608;2024-01-15T05:04:26;21.92;;;11.45;;
57461;SDS011;43308;47.306;8.608;2024-01-15T05:06:51;23.42;;;12.13;;
57461;SDS011;43308;47.306;8.608;2024-01-15T05:09:17;22.80;;;11.23;;
57461;SDS011;43308;47.306;8.608;2024-01-15T05:11:43;25.08;;;12.27;;
57461;SDS011;43308;47.306;8.608;2024-01-15T05:14:09;20.92;;;11.07;;
57461;SDS011;43308;47.306;8.608;2024-01-15T05:16:35;19.02;;;10.63;;
57461;SDS011;43308;47.306;8.608;2024-01-15T05:19:03;21.30;;;10.82;;
57461;SDS011;43308;47.306;8.608;2024-01-15T05:21:29;19.95;;;9.95;;
57461;SDS011;43308;47.306;8.608;2024-01-15T05:23:55;22.63;;;11.63;;
57461;SDS011;43308;47.306;8.608;2024-01-15T05:26:20;18.42;;;8.88;;
57461;SDS011;43308;47.306;8.608;2024-01-15T05:28:46;18.80;;;9.15;;
57461;SDS011;43308;47.306;8.608;2024-01-15T05:31:12;19.83;;;9.13;;
57461;SDS011;43308;47.306;8.608;2024-01-15T05:33:38;19.70;;;9.45;;
57461;SDS011;43308;47.306;8.608;2024-01-15T05:36:04;16.90;;;9.63;;
57461;SDS011;43308;47.306;8.608;2024-01-15T05:38:30;21.35;;;10.18;;
57461;SDS011;43308;47.306;8.608;2024-01-15T05:40:56;17.92;;;9.40;;
57461;SDS011;43308;47.306;8.608;2024-01-15T05:43:21;19.02;;;9.00;;
57461;SDS011;43308;47.306;8.608;2024-01-15T05:45:47;17.95;;;8.75;;
57461;SDS011;43308;47.306;8.608;2024-01-15T05:48:13;21.42;;;10.18;;
57461;SDS011;43308;47.306;8.608;2024-01-15T05:50:38;19.55;;;9.75;;
57461;SDS011;43308;47.306;8.608;2024-01-15T05:53:04;18.70;;;8.63;;
57461;SDS011;43308;47.306;8.608;2024-01-15T05:55:30;19.70;;;10.13;;
57461;SDS011;43308;47.306;8.608;2024-01-15T05:57:56;18.92;;;8.73;;
57461;SDS011;43308;47.306;8.608;2024-01-15T06:00:21;17.17;;;9.15;;
57461;SDS011;43308;47.306;8.608;2024-01-15T06:02:47;19.17;;;9.70;;
57461;SDS011;43308;47.306;8.608;2024-01-15T06:05:13;17.30;;;8.88;;
57461;SDS011;43308;47.306;8.608;2024-01-15T06:07:39;15.63;;;7.90;;
57461;SDS011;43308;47.306;8.608;2024-01-15T06:10:05;16.90;;;8.45;;
57461;SDS011;43308;47.306;8.608;2024-01-15T06:12:31;17.48;;;7.88;;
57461;SDS011;43308;47.306;8.608;2024-01-15T06:14:58;17.33;;;8.38;;
57461;SDS011;43308;47.306;8.608;2024-01-15T06:17:23;15.25;;;8.20;;
57461;SDS011;43308;47.306;8.608;2024-01-15T06:19:49;15.60;;;7.82;;
57461;SDS011;43308;47.306;8.608;2024-01-15T06:22:15;13.45;;;7.38;;
57461;SDS011;43308;47.306;8.608;2024-01-15T06:24:41;13.30;;;8.00;;
57461;SDS011;43308;47.306;8.608;2024-01-15T06:27:06;16.02;;;7.90;;
57461;SDS011;43308;47.306;8.608;2024-01-15T06:29:32;15.77;;;7.97;;
57461;SDS011;43308;47.306;8.608;2024-01-15T06:31:58;14.25;;;7.25;;
57461;SDS011;43308;47.306;8.608;2024-01-15T06:34:23;13.20;;;8.23;;
57461;SDS011;43308;47.306;8.608;2024-01-15T06:36:49;17.20;;;8.43;;
57461;SDS011;43308;47.306;8.608;2024-01-15T06:39:15;17.80;;;7.85;;
57461;SDS011;43308;47.306;8.608;2024-01-15T06:41:40;14.65;;;7.72;;
57461;SDS011;43308;47.306;8.608;2024-01-15T06:44:12;14.32;;;7.43;;
57461;SDS011;43308;47.306;8.608;2024-01-15T06:46:42;12.38;;;7.25;;
57461;SDS011;43308;47.306;8.608;2024-01-15T06:49:09;14.50;;;8.05;;
57461;SDS011;43308;47.306;8.608;2024-01-15T06:51:35;16.50;;;8.10;;
57461;SDS011;43308;47.306;8.608;2024-01-15T06:54:09;14.68;;;7.68;;
57461;SDS011;43308;47.306;8.608;2024-01-15T06:56:35;12.73;;;7.07;;
57461;SDS011;43308;47.306;8.608;2024-01-15T06:59:01;14.00;;;8.27;;
57461;SDS011;43308;47.306;8.608;2024-01-15T07:01:26;13.05;;;6.90;;
57461;SDS011;43308;47.306;8.608;2024-01-15T07:03:52;14.07;;;7.43;;
57461;SDS011;43308;47.306;8.608;2024-01-15T07:06:18;14.70;;;7.60;;
57461;SDS011;43308;47.306;8.608;2024-01-15T07:08:44;12.98;;;7.22;;
57461;SDS011;43308;47.306;8.608;2024-01-15T07:11:11;14.48;;;7.80;;
57461;SDS011;43308;47.306;8.608;2024-01-15T07:13:37;15.95;;;8.43;;
57461;SDS011;43308;47.306;8.608;2024-01-15T07:16:03;15.52;;;7.40;;
57461;SDS011;43308;47.306;8.608;2024-01-15T07:18:29;12.85;;;7.03;;
57461;SDS011;43308;47.306;8.608;2024-01-15T07:20:55;13.82;;;7.63;;
57461;SDS011;43308;47.306;8.608;2024-01-15T07:23:21;15.27;;;7.63;;
57461;SDS011;43308;47.306;8.608;2024-01-15T07:25:47;16.55;;;8.60;;
57461;SDS011;43308;47.306;8.608;2024-01-15T07:28:13;12.15;;;6.95;;
57461;SDS011;43308;47.306;8.608;2024-01-15T07:30:38;13.52;;;6.90;;
57461;SDS011;43308;47.306;8.608;2024-01-15T07:33:04;13.75;;;7.15;;
57461;SDS011;43308;47.306;8.608;2024-01-15T07:35:30;14.27;;;7.10;;
57461;SDS011;43308;47.306;8.608;2024-01-15T07:37:57;14.10;;;6.90;;
57461;SDS011;43308;47.306;8.608;2024-01-15T07:40:22;12.18;;;6.93;;
57461;SDS011;43308;47.306;8.608;2024-01-15T07:42:50;10.80;;;6.47;;
57461;SDS011;43308;47.306;8.608;2024-01-15T07:45:16;12.35;;;6.82;;
57461;SDS011;43308;47.306;8.608;2024-01-15T07:47:42;12.68;;;6.63;;
57461;SDS011;43308;47.306;8.608;2024-01-15T07:50:07;18.27;;;8.10;;
57461;SDS011;43308;47.306;8.608;2024-01-15T07:52:34;13.10;;;7.45;;
57461;SDS011;43308;47.306;8.608;2024-01-15T07:54:59;10.45;;;6.53;;
57461;SDS011;43308;47.306;8.608;2024-01-15T07:57:25;16.15;;;8.57;;
57461;SDS011;43308;47.306;8.608;2024-01-15T07:59:51;13.90;;;6.85;;
57461;SDS011;43308;47.306;8.608;2024-01-15T08:02:17;11.40;;;6.25;;
57461;SDS011;43308;47.306;8.608;2024-01-15T08:04:43;11.98;;;6.32;;
57461;SDS011;43308;47.306;8.608;2024-01-15T08:07:08;12.98;;;7.05;;
57461;SDS011;43308;47.306;8.608;2024-01-15T08:09:34;33.35;;;8.93;;
57461;SDS011;43308;47.306;8.608;2024-01-15T08:12:00;24.90;;;6.90;;
57461;SDS011;43308;47.306;8.608;2024-01-15T08:14:26;12.57;;;6.32;;
57461;SDS011;43308;47.306;8.608;2024-01-15T08:16:52;12.77;;;6.30;;
57461;SDS011;43308;47.306;8.608;2024-01-15T08:19:17;11.40;;;6.70;;
57461;SDS011;43308;47.306;8.608;2024-01-15T08:21:45;10.90;;;5.65;;
57461;SDS011;43308;47.306;8.608;2024-01-15T08:24:11;11.90;;;6.65;;
57461;SDS011;43308;47.306;8.608;2024-01-15T08:26:37;11.23;;;6.30;;
57461;SDS011;43308;47.306;8.608;2024-01-15T08:29:02;9.93;;;5.80;;
57461;SDS011;43308;47.306;8.608;2024-01-15T08:31:29;9.35;;;5.68;;
57461;SDS011;43308;47.306;8.608;2024-01-15T08:33:54;8.40;;;5.07;;
57461;SDS011;43308;47.306;8.608;2024-01-15T08:36:21;12.35;;;4.88;;
57461;SDS011;43308;47.306;8.608;2024-01-15T08:38:46;9.73;;;5.85;;
57461;SDS011;43308;47.306;8.608;2024-01-15T08:41:13;11.30;;;5.85;;
57461;SDS011;43308;47.306;8.608;2024-01-15T08:43:39;11.15;;;5.57;;
57461;SDS011;43308;47.306;8.608;2024-01-15T08:46:05;12.50;;;5.80;;
57461;SDS011;43308;47.306;8.608;2024-01-15T08:48:31;9.13;;;5.35;;
57461;SDS011;43308;47.306;8.608;2024-01-15T08:50:57;16.17;;;6.95;;
57461;SDS011;43308;47.306;8.608;2024-01-15T08:53:22;10.32;;;6.18;;
57461;SDS011;43308;47.306;8.608;2024-01-15T08:55:48;11.48;;;6.68;;
57461;SDS011;43308;47.306;8.608;2024-01-15T08:58:15;12.82;;;7.00;;
57461;SDS011;43308;47.306;8.608;2024-01-15T09:00:41;10.57;;;5.85;;
57461;SDS011;43308;47.306;8.608;2024-01-15T09:03:10;12.55;;;6.90;;
57461;SDS011;43308;47.306;8.608;2024-01-15T09:05:35;10.10;;;6.22;;
57461;SDS011;43308;47.306;8.608;2024-01-15T09:08:01;7.93;;;4.95;;
57461;SDS011;43308;47.306;8.608;2024-01-15T09:10:27;9.07;;;5.13;;
57461;SDS011;43308;47.306;8.608;2024-01-15T09:12:53;10.63;;;6.55;;
57461;SDS011;43308;47.306;8.608;2024-01-15T09:15:18;10.00;;;6.10;;
57461;SDS011;43308;47.306;8.608;2024-01-15T09:17:45;9.00;;;5.00;;
57461;SDS011;43308;47.306;8.608;2024-01-15T09:20:11;9.80;;;5.57;;
57461;SDS011;43308;47.306;8.608;2024-01-15T09:22:40;10.90;;;5.85;;
57461;SDS011;43308;47.306;8.608;2024-01-15T09:25:07;8.35;;;4.90;;
57461;SDS011;43308;47.306;8.608;2024-01-15T09:27:37;10.77;;;5.97;;
57461;SDS011;43308;47.306;8.608;2024-01-15T09:30:05;10.05;;;6.05;;
57461;SDS011;43308;47.306;8.608;2024-01-15T09:32:31;10.13;;;5.10;;
57461;SDS011;43308;47.306;8.608;2024-01-15T09:34:58;9.30;;;5.50;;
57461;SDS011;43308;47.306;8.608;2024-01-15T09:37:24;8.80;;;5.10;;
57461;SDS011;43308;47.306;8.608;2024-01-15T09:39:49;8.35;;;5.13;;
57461;SDS011;43308;47.306;8.608;2024-01-15T09:42:15;8.98;;;5.38;;
57461;SDS011;43308;47.306;8.608;2024-01-15T09:44:41;10.52;;;5.22;;
57461;SDS011;43308;47.306;8.608;2024-01-15T09:47:10;9.32;;;5.28;;
57461;SDS011;43308;47.306;8.608;2024-01-15T09:49:36;8.50;;;5.13;;
57461;SDS011;43308;47.306;8.608;2024-01-15T09:52:02;9.00;;;5.35;;
57461;SDS011;43308;47.306;8.608;2024-01-15T09:54:29;7.50;;;4.75;;
57461;SDS011;43308;47.306;8.608;2024-01-15T09:56:54;13.15;;;5.65;;
57461;SDS011;43308;47.306;8.608;2024-01-15T09:59:20;9.90;;;5.55;;
57461;SDS011;43308;47.306;8.608;2024-01-15T10:01:50;10.38;;;5.97;;
57461;SDS011;43308;47.306;8.608;2024-01-15T10:04:16;8.75;;;4.75;;
57461;SDS011;43308;47.306;8.608;2024-01-15T10:06:43;9.85;;;5.05;;
57461;SDS011;43308;47.306;8.608;2024-01-15T10:09:13;7.25;;;4.47;;
57461;SDS011;43308;47.306;8.608;2024-01-15T10:11:42;7.75;;;3.88;;
57461;SDS011;43308;47.306;8.608;2024-01-15T10:14:09;8.60;;;3.78;;
57461;SDS011;43308;47.306;8.608;2024-01-15T10:16:41;7.38;;;4.43;;
57461;SDS011;43308;47.306;8.608;2024-01-15T10:19:07;6.00;;;3.88;;
57461;SDS011;43308;47.306;8.608;2024-01-15T10:21:34;5.10;;;3.47;;
57461;SDS011;43308;47.306;8.608;2024-01-15T10:24:00;5.57;;;3.67;;
57461;SDS011;43308;47.306;8.608;2024-01-15T10:26:28;4.78;;;3.20;;
57461;SDS011;43308;47.306;8.608;2024-01-15T10:28:54;6.57;;;3.53;;
57461;SDS011;43308;47.306;8.608;2024-01-15T10:31:20;5.43;;;2.88;;
57461;SDS011;43308;47.306;8.608;2024-01-15T10:33:47;6.82;;;3.35;;
57461;SDS011;43308;47.306;8.608;2024-01-15T10:36:14;5.05;;;2.72;;
57461;SDS011;43308;47.306;8.608;2024-01-15T10:38:41;6.60;;;3.60;;
57461;SDS011;43308;47.306;8.608;2024-01-15T10:41:09;6.57;;;3.95;;
57461;SDS011;43308;47.306;8.608;2024-01-15T10:43:35;6.07;;;3.47;;
57461;SDS011;43308;47.306;8.608;2024-01-15T10:46:01;5.90;;;3.45;;
57461;SDS011;43308;47.306;8.608;2024-01-15T10:48:28;5.88;;;2.92;;
57461;SDS011;43308;47.306;8.608;2024-01-15T10:50:59;5.38;;;3.47;;
57461;SDS011;43308;47.306;8.608;2024-01-15T10:53:24;5.90;;;3.35;;
57461;SDS011;43308;47.306;8.608;2024-01-15T10:55:50;7.40;;;3.95;;
57461;SDS011;43308;47.306;8.608;2024-01-15T10:58:17;8.75;;;3.30;;
57461;SDS011;43308;47.306;8.608;2024-01-15T11:00:45;9.90;;;4.45;;
57461;SDS011;43308;47.306;8.608;2024-01-15T11:03:10;7.28;;;3.70;;
57461;SDS011;43308;47.306;8.608;2024-01-15T11:05:43;6.57;;;3.80;;
57461;SDS011;43308;47.306;8.608;2024-01-15T11:08:09;6.88;;;4.13;;
57461;SDS011;43308;47.306;8.608;2024-01-15T11:13:14;6.93;;;3.65;;
57461;SDS011;43308;47.306;8.608;2024-01-15T11:18:41;5.80;;;3.53;;
57461;SDS011;43308;47.306;8.608;2024-01-15T11:23:44;5.10;;;3.22;;
57461;SDS011;43308;47.306;8.608;2024-01-15T11:28:57;4.45;;;2.85;;
57461;SDS011;43308;47.306;8.608;2024-01-15T11:34:06;4.47;;;3.03;;
57461;SDS011;43308;47.306;8.608;2024-01-15T11:37:07;5.70;;;3.00;;
57461;SDS011;43308;47.306;8.608;2024-01-15T11:41:59;6.85;;;3.65;;
57461;SDS011;43308;47.306;8.608;2024-01-15T11:44:27;6.15;;;3.92;;
57461;SDS011;43308;47.306;8.608;2024-01-15T11:46:57;5.88;;;4.00;;
57461;SDS011;43308;47.306;8.608;2024-01-15T11:52:31;5.95;;;3.42;;
57461;SDS011;43308;47.306;8.608;2024-01-15T12:00:12;5.78;;;3.60;;
57461;SDS011;43308;47.306;8.608;2024-01-15T12:02:39;6.68;;;3.42;;
57461;SDS011;43308;47.306;8.608;2024-01-15T12:05:07;5.75;;;2.92;;
57461;SDS011;43308;47.306;8.608;2024-01-15T12:07:42;5.72;;;3.30;;
57461;SDS011;43308;47.306;8.608;2024-01-15T12:10:13;7.20;;;4.10;;
57461;SDS011;43308;47.306;8.608;2024-01-15T12:15:24;7.07;;;3.85;;
57461;SDS011;43308;47.306;8.608;2024-01-15T12:17:51;6.38;;;3.55;;
57461;SDS011;43308;47.306;8.608;2024-01-15T12:20:18;6.57;;;3.55;;
57461;SDS011;43308;47.306;8.608;2024-01-15T12:22:44;13.27;;;4.55;;
57461;SDS011;43308;47.306;8.608;2024-01-15T12:25:10;6.57;;;3.75;;
57461;SDS011;43308;47.306;8.608;2024-01-15T12:27:35;6.72;;;3.20;;
57461;SDS011;43308;47.306;8.608;2024-01-15T12:30:02;6.13;;;3.00;;
57461;SDS011;43308;47.306;8.608;2024-01-15T12:32:28;9.40;;;4.10;;
57461;SDS011;43308;47.306;8.608;2024-01-15T12:34:55;5.55;;;3.75;;
57461;SDS011;43308;47.306;8.608;2024-01-15T12:37:20;6.88;;;4.18;;
57461;SDS011;43308;47.306;8.608;2024-01-15T12:39:47;5.60;;;3.72;;
57461;SDS011;43308;47.306;8.608;2024-01-15T12:42:16;7.05;;;3.85;;
57461;SDS011;43308;47.306;8.608;2024-01-15T12:44:42;6.55;;;3.50;;
57461;SDS011;43308;47.306;8.608;2024-01-15T12:47:10;6.50;;;3.97;;
57461;SDS011;43308;47.306;8.608;2024-01-15T12:49:36;5.85;;;4.10;;
57461;SDS011;43308;47.306;8.608;2024-01-15T12:52:03;6.47;;;3.60;;
57461;SDS011;43308;47.306;8.608;2024-01-15T12:54:29;4.88;;;3.53;;
57461;SDS011;43308;47.306;8.608;2024-01-15T12:56:54;7.07;;;3.60;;
57461;SDS011;43308;47.306;8.608;2024-01-15T12:59:20;4.82;;;3.35;;
57461;SDS011;43308;47.306;8.608;2024-01-15T13:01:46;7.20;;;3.63;;
57461;SDS011;43308;47.306;8.608;2024-01-15T13:04:22;5.93;;;3.65;;
57461;SDS011;43308;47.306;8.608;2024-01-15T13:06:49;7.53;;;4.70;;
57461;SDS011;43308;47.306;8.608;2024-01-15T13:09:16;6.35;;;3.58;;
57461;SDS011;43308;47.306;8.608;2024-01-15T13:11:46;6.47;;;3.45;;
57461;SDS011;43308;47.306;8.608;2024-01-15T13:14:12;5.18;;;3.15;;
57461;SDS011;43308;47.306;8.608;2024-01-15T13:16:41;6.03;;;3.67;;
57461;SDS011;43308;47.306;8.608;2024-01-15T13:19:08;5.30;;;3.50;;
57461;SDS011;43308;47.306;8.608;2024-01-15T13:21:36;5.38;;;3.58;;
57461;SDS011;43308;47.306;8.608;2024-01-15T13:24:03;5.00;;;3.88;;
57461;SDS011;43308;47.306;8.608;2024-01-15T13:26:32;4.88;;;3.40;;
57461;SDS011;43308;47.306;8.608;2024-01-15T13:28:59;5.15;;;3.15;;
57461;SDS011;43308;47.306;8.608;2024-01-15T13:31:27;7.47;;;4.53;;
57461;SDS011;43308;47.306;8.608;2024-01-15T13:33:53;5.13;;;3.63;;
57461;SDS011;43308;47.306;8.608;2024-01-15T13:36:21;6.88;;;3.90;;
57461;SDS011;43308;47.306;8.608;2024-01-15T13:38:49;8.02;;;4.10;;
57461;SDS011;43308;47.306;8.608;2024-01-15T13:41:19;8.13;;;4.10;;
57461;SDS011;43308;47.306;8.608;2024-01-15T13:43:50;6.25;;;3.63;;
57461;SDS011;43308;47.306;8.608;2024-01-15T13:46:20;5.05;;;3.90;;
57461;SDS011;43308;47.306;8.608;2024-01-15T13:48:48;5.38;;;3.58;;
57461;SDS011;43308;47.306;8.608;2024-01-15T13:51:14;6.30;;;3.40;;
57461;SDS011;43308;47.306;8.608;2024-01-15T13:53:40;4.82;;;3.17;;
57461;SDS011;43308;47.306;8.608;2024-01-15T13:56:06;5.82;;;3.47;;
57461;SDS011;43308;47.306;8.608;2024-01-15T13:58:33;6.00;;;3.95;;
57461;SDS011;43308;47.306;8.608;2024-01-15T14:00:59;7.45;;;3.97;;
57461;SDS011;43308;47.306;8.608;2024-01-15T14:03:26;7.00;;;3.63;;
57461;SDS011;43308;47.306;8.608;2024-01-15T14:05:52;4.53;;;3.47;;
57461;SDS011;43308;47.306;8.608;2024-01-15T14:08:18;5.95;;;4.43;;
57461;SDS011;43308;47.306;8.608;2024-01-15T14:10:43;7.32;;;4.88;;
57461;SDS011;43308;47.306;8.608;2024-01-15T14:13:10;8.27;;;6.15;;
57461;SDS011;43308;47.306;8.608;2024-01-15T14:15:36;5.18;;;3.78;;
57461;SDS011;43308;47.306;8.608;2024-01-15T14:18:02;7.93;;;4.72;;
57461;SDS011;43308;47.306;8.608;2024-01-15T14:20:28;6.07;;;4.05;;
57461;SDS011;43308;47.306;8.608;2024-01-15T14:22:54;8.02;;;4.40;;
57461;SDS011;43308;47.306;8.608;2024-01-15T14:25:20;5.90;;;3.97;;
57461;SDS011;43308;47.306;8.608;2024-01-15T14:27:46;6.90;;;4.50;;
57461;SDS011;43308;47.306;8.608;2024-01-15T14:30:13;7.57;;;4.00;;
57461;SDS011;43308;47.306;8.608;2024-01-15T14:32:56;7.10;;;4.90;;
57461;SDS011;43308;47.306;8.608;2024-01-15T14:35:49;8.02;;;5.28;;
57461;SDS011;43308;47.306;8.608;2024-01-15T14:38:16;6.10;;;4.28;;
57461;SDS011;43308;47.306;8.608;2024-01-15T14:40:42;7.43;;;4.80;;
57461;SDS011;43308;47.306;8.608;2024-01-15T14:43:09;7.90;;;4.93;;
57461;SDS011;43308;47.306;8.608;2024-01-15T14:45:36;8.50;;;5.00;;
57461;SDS011;43308;47.306;8.608;2024-01-15T14:48:02;7.63;;;5.05;;
57461;SDS011;43308;47.306;8.608;2024-01-15T14:50:28;10.23;;;5.28;;
57461;SDS011;43308;47.306;8.608;2024-01-15T14:52:53;7.97;;;5.07;;
57461;SDS011;43308;47.306;8.608;2024-01-15T14:55:19;6.43;;;4.43;;
57461;SDS011;43308;47.306;8.608;2024-01-15T14:57:45;8.18;;;4.47;;
57461;SDS011;43308;47.306;8.608;2024-01-15T15:00:11;6.72;;;4.10;;
57461;SDS011;43308;47.306;8.608;2024-01-15T15:02:38;8.57;;;5.30;;